Weather at Sandia Base Airfield [CLOSED]

Public forecast

Using degrees Fahrenheit for public forecast. Weather courtesy of forecast.io.

Closest aviation weather report (METAR) to Sandia Base Airfield

Closest report is Albuquerque International Sunport, 7.0 nm (13.0 km) NW.

2024/07/21 21:52 (retrieved 1 hour ago)

KABQ 212152Z 27007KT 10SM SCT070 SCT180 29/13 A3017 RMK AO2 SLP131 CB DSNT N T02890133

Closest aviation forecast (TAF) to Sandia Base Airfield

Closest forecast is Albuquerque International Sunport, 7.0 nm (13.0 km) NW.

2024/07/21 19:00 Ammendment (retrieved 4 hours ago)

TAF AMD KABQ 211859Z 2119/2218 15008KT P6SM VCSH SCT070 BKN200 TEMPO 2122/2202 10020G35KT 5SM -TSRA OVC050CB FM220200 01020G32KT 6SM -TSRA OVC050CB FM220400 09018G28KT P6SM VCSH BKN050 OVC100 FM220900 07009KT P6SM BKN040 OVC100